sensor_id;sensor_type;location;lat;lon;timestamp;pressure;altitude;pressure_sealevel;temperature;humidity
76762;BME280;65705;51.032;13.790;2023-05-18T00:00:20;101243.41;;;11.30;54.64
76762;BME280;65705;51.032;13.790;2023-05-18T00:02:48;101239.69;;;11.23;55.45
76762;BME280;65705;51.032;13.790;2023-05-18T00:05:14;101243.41;;;11.21;55.00
76762;BME280;65705;51.032;13.790;2023-05-18T00:07:42;101249.31;;;11.04;54.79
76762;BME280;65705;51.032;13.790;2023-05-18T00:10:08;101255.38;;;11.04;53.35
76762;BME280;65705;51.032;13.790;2023-05-18T00:12:34;101258.56;;;10.98;54.00
76762;BME280;65705;51.032;13.790;2023-05-18T00:15:00;101261.75;;;11.02;53.57
76762;BME280;65705;51.032;13.790;2023-05-18T00:17:25;101264.66;;;11.08;54.46
76762;BME280;65705;51.032;13.790;2023-05-18T00:19:51;101267.84;;;11.12;53.94
76762;BME280;65705;51.032;13.790;2023-05-18T00:22:17;101266.44;;;11.08;54.54
76762;BME280;65705;51.032;13.790;2023-05-18T00:24:44;101269.22;;;11.06;54.10
76762;BME280;65705;51.032;13.790;2023-05-18T00:27:11;101267.03;;;11.11;54.24
76762;BME280;65705;51.032;13.790;2023-05-18T00:29:37;101267.00;;;11.02;55.12
76762;BME280;65705;51.032;13.790;2023-05-18T00:32:03;101268.91;;;11.00;54.98
76762;BME280;65705;51.032;13.790;2023-05-18T00:34:29;101271.97;;;10.95;54.88
76762;BME280;65705;51.032;13.790;2023-05-18T00:36:58;101272.63;;;10.97;54.58
76762;BME280;65705;51.032;13.790;2023-05-18T00:39:26;101271.13;;;11.04;54.99
76762;BME280;65705;51.032;13.790;2023-05-18T00:41:52;101271.97;;;10.95;54.49
76762;BME280;65705;51.032;13.790;2023-05-18T00:44:18;101277.31;;;10.94;55.65
76762;BME280;65705;51.032;13.790;2023-05-18T00:46:43;101277.72;;;10.89;55.80
76762;BME280;65705;51.032;13.790;2023-05-18T00:49:11;101279.09;;;10.84;55.35
76762;BME280;65705;51.032;13.790;2023-05-18T00:51:37;101285.56;;;10.80;54.79
76762;BME280;65705;51.032;13.790;2023-05-18T00:54:03;101285.84;;;10.77;55.90
76762;BME280;65705;51.032;13.790;2023-05-18T00:56:31;101289.25;;;10.68;56.54
76762;BME280;65705;51.032;13.790;2023-05-18T00:59:00;101285.06;;;10.65;56.91
76762;BME280;65705;51.032;13.790;2023-05-18T01:01:31;101283.00;;;10.69;56.22
76762;BME280;65705;51.032;13.790;2023-05-18T01:04:02;101287.75;;;10.75;56.27
76762;BME280;65705;51.032;13.790;2023-05-18T01:06:30;101293.34;;;10.60;56.10
76762;BME280;65705;51.032;13.790;2023-05-18T01:09:01;101289.72;;;10.52;56.65
76762;BME280;65705;51.032;13.790;2023-05-18T01:16:26;101289.06;;;10.39;57.34
76762;BME280;65705;51.032;13.790;2023-05-18T01:19:02;101297.25;;;10.45;57.47
76762;BME280;65705;51.032;13.790;2023-05-18T01:21:56;101300.44;;;10.49;56.63
76762;BME280;65705;51.032;13.790;2023-05-18T01:24:29;101294.41;;;10.48;57.30
76762;BME280;65705;51.032;13.790;2023-05-18T01:26:58;101298.09;;;10.46;58.38
76762;BME280;65705;51.032;13.790;2023-05-18T01:29:28;101299.16;;;10.43;57.79
76762;BME280;65705;51.032;13.790;2023-05-18T01:31:56;101299.88;;;10.45;57.32
76762;BME280;65705;51.032;13.790;2023-05-18T01:34:22;101302.34;;;10.37;57.53
76762;BME280;65705;51.032;13.790;2023-05-18T01:36:47;101299.00;;;10.35;57.73
76762;BME280;65705;51.032;13.790;2023-05-18T01:39:13;101313.19;;;10.33;57.94
76762;BME280;65705;51.032;13.790;2023-05-18T01:41:45;101303.66;;;10.32;57.87
76762;BME280;65705;51.032;13.790;2023-05-18T01:44:23;101304.75;;;10.29;57.78
76762;BME280;65705;51.032;13.790;2023-05-18T01:52:22;101303.84;;;10.19;57.71
76762;BME280;65705;51.032;13.790;2023-05-18T01:54:52;101303.03;;;10.19;58.06
76762;BME280;65705;51.032;13.790;2023-05-18T01:57:20;101299.81;;;10.15;58.11
76762;BME280;65705;51.032;13.790;2023-05-18T01:59:48;101296.47;;;10.13;58.23
76762;BME280;65705;51.032;13.790;2023-05-18T02:02:15;101296.19;;;9.96;58.38
76762;BME280;65705;51.032;13.790;2023-05-18T02:04:42;101301.88;;;10.01;58.65
76762;BME280;65705;51.032;13.790;2023-05-18T02:07:07;101299.25;;;10.01;58.57
76762;BME280;65705;51.032;13.790;2023-05-18T02:09:33;101298.63;;;10.08;57.81
76762;BME280;65705;51.032;13.790;2023-05-18T02:11:59;101301.28;;;9.97;58.26
76762;BME280;65705;51.032;13.790;2023-05-18T02:14:25;101305.97;;;9.94;58.21
76762;BME280;65705;51.032;13.790;2023-05-18T02:16:51;101305.09;;;9.73;58.78
76762;BME280;65705;51.032;13.790;2023-05-18T02:19:20;101317.75;;;9.68;59.43
76762;BME280;65705;51.032;13.790;2023-05-18T02:21:45;101309.91;;;9.56;59.56
76762;BME280;65705;51.032;13.790;2023-05-18T02:24:12;101311.09;;;9.52;59.26
76762;BME280;65705;51.032;13.790;2023-05-18T02:26:38;101313.59;;;9.54;59.16
76762;BME280;65705;51.032;13.790;2023-05-18T02:29:04;101313.25;;;9.58;59.58
76762;BME280;65705;51.032;13.790;2023-05-18T02:31:37;101315.16;;;9.56;59.18
76762;BME280;65705;51.032;13.790;2023-05-18T02:34:03;101317.38;;;9.61;59.40
76762;BME280;65705;51.032;13.790;2023-05-18T02:36:30;101322.50;;;9.63;59.90
76762;BME280;65705;51.032;13.790;2023-05-18T02:39:02;101321.66;;;9.73;60.68
76762;BME280;65705;51.032;13.790;2023-05-18T02:41:32;101324.63;;;9.69;60.88
76762;BME280;65705;51.032;13.790;2023-05-18T02:43:58;101332.50;;;9.69;61.02
76762;BME280;65705;51.032;13.790;2023-05-18T02:46:25;101336.25;;;9.55;61.54
76762;BME280;65705;51.032;13.790;2023-05-18T02:48:51;101336.13;;;9.56;61.38
76762;BME280;65705;51.032;13.790;2023-05-18T02:51:16;101334.44;;;9.55;61.27
76762;BME280;65705;51.032;13.790;2023-05-18T02:53:43;101336.94;;;9.57;61.77
76762;BME280;65705;51.032;13.790;2023-05-18T02:56:11;101342.28;;;9.55;61.76
76762;BME280;65705;51.032;13.790;2023-05-18T02:58:46;101335.53;;;9.53;61.47
76762;BME280;65705;51.032;13.790;2023-05-18T03:01:18;101335.00;;;9.59;61.06
76762;BME280;65705;51.032;13.790;2023-05-18T03:03:48;101338.50;;;9.48;60.30
76762;BME280;65705;51.032;13.790;2023-05-18T03:06:15;101343.13;;;9.56;60.33
76762;BME280;65705;51.032;13.790;2023-05-18T03:08:42;101337.44;;;9.51;60.31
76762;BME280;65705;51.032;13.790;2023-05-18T03:11:09;101341.25;;;9.47;60.61
76762;BME280;65705;51.032;13.790;2023-05-18T03:13:35;101331.47;;;9.49;61.01
76762;BME280;65705;51.032;13.790;2023-05-18T03:16:01;101341.47;;;9.55;60.89
76762;BME280;65705;51.032;13.790;2023-05-18T03:18:26;101338.16;;;9.53;61.52
76762;BME280;65705;51.032;13.790;2023-05-18T03:20:53;101334.97;;;9.27;61.29
76762;BME280;65705;51.032;13.790;2023-05-18T03:23:18;101336.50;;;9.41;60.89
76762;BME280;65705;51.032;13.790;2023-05-18T03:25:45;101348.50;;;9.43;61.34
76762;BME280;65705;51.032;13.790;2023-05-18T03:28:11;101343.06;;;9.35;60.76
76762;BME280;65705;51.032;13.790;2023-05-18T03:30:38;101349.22;;;9.45;60.70
76762;BME280;65705;51.032;13.790;2023-05-18T03:33:04;101354.72;;;9.53;60.66
76762;BME280;65705;51.032;13.790;2023-05-18T03:35:31;101356.50;;;9.53;60.60
76762;BME280;65705;51.032;13.790;2023-05-18T03:37:57;101357.06;;;9.56;60.40
76762;BME280;65705;51.032;13.790;2023-05-18T03:40:23;101353.34;;;9.59;60.62
76762;BME280;65705;51.032;13.790;2023-05-18T03:42:49;101352.56;;;9.58;61.04
76762;BME280;65705;51.032;13.790;2023-05-18T03:45:16;101352.09;;;9.53;61.50
76762;BME280;65705;51.032;13.790;2023-05-18T03:47:42;101363.03;;;9.47;61.73
76762;BME280;65705;51.032;13.790;2023-05-18T03:50:08;101359.13;;;9.42;62.12
76762;BME280;65705;51.032;13.790;2023-05-18T03:52:35;101362.13;;;9.37;62.15
76762;BME280;65705;51.032;13.790;2023-05-18T03:55:02;101368.41;;;9.35;62.35
76762;BME280;65705;51.032;13.790;2023-05-18T03:57:30;101374.72;;;9.32;62.53
76762;BME280;65705;51.032;13.790;2023-05-18T03:59:58;101370.91;;;9.36;62.46
76762;BME280;65705;51.032;13.790;2023-05-18T04:02:25;101370.56;;;9.41;62.53
76762;BME280;65705;51.032;13.790;2023-05-18T04:04:51;101373.06;;;9.53;62.07
76762;BME280;65705;51.032;13.790;2023-05-18T04:07:19;101368.16;;;9.49;61.27
76762;BME280;65705;51.032;13.790;2023-05-18T04:09:53;101373.78;;;9.44;61.53
76762;BME280;65705;51.032;13.790;2023-05-18T04:12:20;101374.13;;;9.40;61.49
76762;BME280;65705;51.032;13.790;2023-05-18T04:14:45;101380.09;;;9.42;61.88
76762;BME280;65705;51.032;13.790;2023-05-18T04:17:18;101383.03;;;9.59;61.65
76762;BME280;65705;51.032;13.790;2023-05-18T04:19:48;101386.94;;;9.76;61.31
76762;BME280;65705;51.032;13.790;2023-05-18T04:22:15;101382.00;;;9.94;60.79
76762;BME280;65705;51.032;13.790;2023-05-18T04:24:41;101379.22;;;10.06;60.82
76762;BME280;65705;51.032;13.790;2023-05-18T04:27:08;101382.56;;;10.19;60.25
76762;BME280;65705;51.032;13.790;2023-05-18T04:29:34;101385.16;;;10.30;60.07
76762;BME280;65705;51.032;13.790;2023-05-18T04:32:05;101388.53;;;10.42;59.53
76762;BME280;65705;51.032;13.790;2023-05-18T04:34:33;101386.22;;;10.28;60.10
76762;BME280;65705;51.032;13.790;2023-05-18T04:37:05;101377.00;;;10.33;60.50
76762;BME280;65705;51.032;13.790;2023-05-18T04:39:32;101390.75;;;10.26;59.95
76762;BME280;65705;51.032;13.790;2023-05-18T04:42:00;101391.97;;;10.22;60.05
76762;BME280;65705;51.032;13.790;2023-05-18T04:44:30;101387.53;;;9.80;59.79
76762;BME280;65705;51.032;13.790;2023-05-18T04:46:59;101392.06;;;9.78;60.14
76762;BME280;65705;51.032;13.790;2023-05-18T04:49:25;101393.94;;;9.87;60.50
76762;BME280;65705;51.032;13.790;2023-05-18T04:51:54;101391.03;;;10.01;60.28
76762;BME280;65705;51.032;13.790;2023-05-18T04:54:24;101397.00;;;10.14;59.58
76762;BME280;65705;51.032;13.790;2023-05-18T04:56:51;101394.22;;;10.26;58.98
76762;BME280;65705;51.032;13.790;2023-05-18T04:59:17;101387.50;;;10.33;58.15
76762;BME280;65705;51.032;13.790;2023-05-18T05:01:44;101398.09;;;10.43;58.17
76762;BME280;65705;51.032;13.790;2023-05-18T05:04:11;101396.38;;;10.53;57.45
76762;BME280;65705;51.032;13.790;2023-05-18T05:06:37;101390.09;;;10.65;57.71
76762;BME280;65705;51.032;13.790;2023-05-18T05:09:03;101403.50;;;10.83;57.50
76762;BME280;65705;51.032;13.790;2023-05-18T05:11:29;101399.25;;;10.91;56.66
76762;BME280;65705;51.032;13.790;2023-05-18T05:13:56;101404.44;;;11.02;56.56
76762;BME280;65705;51.032;13.790;2023-05-18T05:16:22;101401.41;;;11.07;56.27
76762;BME280;65705;51.032;13.790;2023-05-18T05:18:48;101401.97;;;11.10;55.92
76762;BME280;65705;51.032;13.790;2023-05-18T05:21:15;101409.22;;;11.18;56.13
76762;BME280;65705;51.032;13.790;2023-05-18T05:23:41;101416.19;;;11.28;55.23
76762;BME280;65705;51.032;13.790;2023-05-18T05:26:07;101403.44;;;11.24;54.42
76762;BME280;65705;51.032;13.790;2023-05-18T05:28:33;101404.53;;;11.21;55.09
76762;BME280;65705;51.032;13.790;2023-05-18T05:30:59;101399.44;;;11.29;54.10
76762;BME280;65705;51.032;13.790;2023-05-18T05:33:25;101398.84;;;11.16;53.67
76762;BME280;65705;51.032;13.790;2023-05-18T05:35:51;101407.88;;;11.23;54.18
76762;BME280;65705;51.032;13.790;2023-05-18T05:38:17;101403.69;;;11.21;54.26
76762;BME280;65705;51.032;13.790;2023-05-18T05:40:43;101405.09;;;11.25;54.45
76762;BME280;65705;51.032;13.790;2023-05-18T05:43:09;101402.06;;;11.29;54.55
76762;BME280;65705;51.032;13.790;2023-05-18T05:45:35;101409.13;;;11.29;54.23
76762;BME280;65705;51.032;13.790;2023-05-18T05:48:05;101407.22;;;11.31;54.33
76762;BME280;65705;51.032;13.790;2023-05-18T05:50:31;101401.53;;;11.35;54.82
76762;BME280;65705;51.032;13.790;2023-05-18T05:52:59;101401.03;;;11.41;54.04
76762;BME280;65705;51.032;13.790;2023-05-18T05:55:26;101405.72;;;11.47;53.49
76762;BME280;65705;51.032;13.790;2023-05-18T05:57:52;101404.38;;;11.53;53.31
76762;BME280;65705;51.032;13.790;2023-05-18T06:00:18;101407.78;;;11.64;53.81
76762;BME280;65705;51.032;13.790;2023-05-18T06:02:49;101403.09;;;11.68;52.99
76762;BME280;65705;51.032;13.790;2023-05-18T06:05:21;101412.81;;;11.77;52.85
76762;BME280;65705;51.032;13.790;2023-05-18T06:07:47;101411.16;;;11.86;52.33
76762;BME280;65705;51.032;13.790;2023-05-18T06:10:13;101405.88;;;11.86;52.36
76762;BME280;65705;51.032;13.790;2023-05-18T06:12:39;101412.97;;;11.95;52.68
76762;BME280;65705;51.032;13.790;2023-05-18T06:15:06;101412.44;;;12.01;52.18
76762;BME280;65705;51.032;13.790;2023-05-18T06:17:34;101412.44;;;12.01;52.37
76762;BME280;65705;51.032;13.790;2023-05-18T06:20:00;101411.19;;;12.05;53.23
76762;BME280;65705;51.032;13.790;2023-05-18T06:22:26;101417.84;;;12.18;52.94
76762;BME280;65705;51.032;13.790;2023-05-18T06:25:09;101421.03;;;12.12;52.25
76762;BME280;65705;51.032;13.790;2023-05-18T06:28:07;101424.34;;;12.05;52.17
76762;BME280;65705;51.032;13.790;2023-05-18T06:30:46;101428.94;;;12.03;53.20
76762;BME280;65705;51.032;13.790;2023-05-18T06:33:19;101427.25;;;12.02;53.13
76762;BME280;65705;51.032;13.790;2023-05-18T06:35:46;101429.75;;;12.13;53.06
76762;BME280;65705;51.032;13.790;2023-05-18T06:38:11;101428.41;;;12.28;51.90
76762;BME280;65705;51.032;13.790;2023-05-18T06:40:37;101431.03;;;12.37;51.36
76762;BME280;65705;51.032;13.790;2023-05-18T06:43:03;101426.63;;;12.47;50.45
76762;BME280;65705;51.032;13.790;2023-05-18T06:45:36;101431.31;;;12.34;50.67
76762;BME280;65705;51.032;13.790;2023-05-18T06:48:10;101439.88;;;12.46;50.16
76762;BME280;65705;51.032;13.790;2023-05-18T06:50:36;101438.09;;;12.46;49.05
76762;BME280;65705;51.032;13.790;2023-05-18T06:53:02;101449.03;;;12.51;49.60
76762;BME280;65705;51.032;13.790;2023-05-18T06:55:29;101447.25;;;12.52;49.73
76762;BME280;65705;51.032;13.790;2023-05-18T06:57:55;101438.94;;;12.56;50.49
76762;BME280;65705;51.032;13.790;2023-05-18T07:00:23;101439.34;;;12.61;50.10
76762;BME280;65705;51.032;13.790;2023-05-18T07:02:49;101434.50;;;12.66;49.68
76762;BME280;65705;51.032;13.790;2023-05-18T07:05:15;101432.41;;;12.70;49.24
76762;BME280;65705;51.032;13.790;2023-05-18T07:07:42;101438.22;;;12.64;49.13
76762;BME280;65705;51.032;13.790;2023-05-18T07:10:08;101430.75;;;12.69;49.34
76762;BME280;65705;51.032;13.790;2023-05-18T07:12:34;101435.44;;;12.75;48.96
76762;BME280;65705;51.032;13.790;2023-05-18T07:14:59;101439.63;;;12.78;47.83
76762;BME280;65705;51.032;13.790;2023-05-18T07:17:26;101438.78;;;12.77;48.01
76762;BME280;65705;51.032;13.790;2023-05-18T07:19:51;101427.25;;;12.78;47.39
76762;BME280;65705;51.032;13.790;2023-05-18T07:22:17;101436.84;;;12.79;47.50
76762;BME280;65705;51.032;13.790;2023-05-18T07:24:44;101431.72;;;12.78;47.96
76762;BME280;65705;51.032;13.790;2023-05-18T07:27:11;101432.22;;;12.91;47.43
76762;BME280;65705;51.032;13.790;2023-05-18T07:29:37;101432.22;;;13.00;45.64
76762;BME280;65705;51.032;13.790;2023-05-18T07:32:03;101427.66;;;13.12;46.77
76762;BME280;65705;51.032;13.790;2023-05-18T07:34:29;101425.66;;;13.23;45.73
76762;BME280;65705;51.032;13.790;2023-05-18T07:36:55;101427.84;;;13.37;44.52
76762;BME280;65705;51.032;13.790;2023-05-18T07:39:22;101428.13;;;13.44;43.74
76762;BME280;65705;51.032;13.790;2023-05-18T07:41:54;101426.59;;;13.32;44.38
76762;BME280;65705;51.032;13.790;2023-05-18T07:44:20;101429.28;;;13.22;43.81
76762;BME280;65705;51.032;13.790;2023-05-18T07:46:45;101428.75;;;13.19;44.41
76762;BME280;65705;51.032;13.790;2023-05-18T07:49:11;101426.56;;;13.05;44.62
76762;BME280;65705;51.032;13.790;2023-05-18T07:51:37;101432.09;;;13.11;45.34
76762;BME280;65705;51.032;13.790;2023-05-18T07:54:03;101422.63;;;13.18;45.02
76762;BME280;65705;51.032;13.790;2023-05-18T07:56:29;101417.59;;;13.34;46.07
76762;BME280;65705;51.032;13.790;2023-05-18T07:58:56;101418.56;;;13.33;44.16
76762;BME280;65705;51.032;13.790;2023-05-18T08:01:22;101435.44;;;13.13;44.55
76762;BME280;65705;51.032;13.790;2023-05-18T08:03:52;101425.53;;;13.25;45.16
76762;BME280;65705;51.032;13.790;2023-05-18T08:06:19;101427.56;;;13.40;45.12
76762;BME280;65705;51.032;13.790;2023-05-18T08:08:46;101429.50;;;13.48;44.57
76762;BME280;65705;51.032;13.790;2023-05-18T08:11:12;101430.69;;;13.53;44.34
76762;BME280;65705;51.032;13.790;2023-05-18T08:13:38;101424.13;;;13.67;43.46
76762;BME280;65705;51.032;13.790;2023-05-18T08:16:04;101430.81;;;13.89;42.98
76762;BME280;65705;51.032;13.790;2023-05-18T08:18:30;101434.59;;;14.04;42.94
76762;BME280;65705;51.032;13.790;2023-05-18T08:20:56;101424.34;;;14.18;42.00
76762;BME280;65705;51.032;13.790;2023-05-18T08:23:24;101415.09;;;14.14;42.34
76762;BME280;65705;51.032;13.790;2023-05-18T08:25:50;101417.47;;;14.08;42.50
76762;BME280;65705;51.032;13.790;2023-05-18T08:28:16;101421.69;;;14.01;42.80
76762;BME280;65705;51.032;13.790;2023-05-18T08:30:42;101420.09;;;13.90;42.69
76762;BME280;65705;51.032;13.790;2023-05-18T08:33:07;101413.78;;;13.73;42.84
76762;BME280;65705;51.032;13.790;2023-05-18T08:35:33;101416.28;;;13.75;42.74
76762;BME280;65705;51.032;13.790;2023-05-18T08:37:59;101407.41;;;13.76;43.40
76762;BME280;65705;51.032;13.790;2023-05-18T08:40:32;101408.44;;;13.65;43.79
76762;BME280;65705;51.032;13.790;2023-05-18T08:43:11;101414.53;;;13.66;43.80
76762;BME280;65705;51.032;13.790;2023-05-18T08:48:12;101414.78;;;14.00;43.62
76762;BME280;65705;51.032;13.790;2023-05-18T08:50:40;101424.03;;;14.04;43.52
76762;BME280;65705;51.032;13.790;2023-05-18T08:53:08;101416.81;;;14.23;41.80
76762;BME280;65705;51.032;13.790;2023-05-18T08:55:35;101414.22;;;14.41;42.35
76762;BME280;65705;51.032;13.790;2023-05-18T08:58:03;101422.88;;;14.51;41.75
76762;BME280;65705;51.032;13.790;2023-05-18T09:00:31;101416.50;;;14.79;42.22
76762;BME280;65705;51.032;13.790;2023-05-18T09:02:58;101417.25;;;14.89;41.05
76762;BME280;65705;51.032;13.790;2023-05-18T09:05:24;101421.19;;;15.11;40.42
76762;BME280;65705;51.032;13.790;2023-05-18T09:07:50;101407.03;;;14.94;40.75
76762;BME280;65705;51.032;13.790;2023-05-18T09:10:16;101418.03;;;14.82;41.15
76762;BME280;65705;51.032;13.790;2023-05-18T09:12:43;101412.22;;;15.04;40.36
76762;BME280;65705;51.032;13.790;2023-05-18T09:15:15;101414.06;;;15.11;40.86
76762;BME280;65705;51.032;13.790;2023-05-18T09:17:41;101406.56;;;15.24;41.32
76762;BME280;65705;51.032;13.790;2023-05-18T09:20:07;101409.00;;;15.18;40.43
76762;BME280;65705;51.032;13.790;2023-05-18T09:22:33;101409.78;;;15.10;41.39
76762;BME280;65705;51.032;13.790;2023-05-18T09:25:07;101401.69;;;15.12;41.76
76762;BME280;65705;51.032;13.790;2023-05-18T09:27:34;101412.16;;;15.21;41.38
76762;BME280;65705;51.032;13.790;2023-05-18T09:30:00;101405.69;;;15.16;41.42
76762;BME280;65705;51.032;13.790;2023-05-18T09:32:25;101401.50;;;15.05;40.47
76762;BME280;65705;51.032;13.790;2023-05-18T09:34:52;101401.22;;;14.91;42.34
76762;BME280;65705;51.032;13.790;2023-05-18T09:37:19;101400.81;;;15.03;40.76
76762;BME280;65705;51.032;13.790;2023-05-18T09:39:58;101397.44;;;15.19;40.36
76762;BME280;65705;51.032;13.790;2023-05-18T09:42:35;101400.94;;;15.27;40.79
76762;BME280;65705;51.032;13.790;2023-05-18T09:45:03;101394.81;;;14.93;41.15
76762;BME280;65705;51.032;13.790;2023-05-18T09:47:29;101397.19;;;15.04;41.22
76762;BME280;65705;51.032;13.790;2023-05-18T09:49:56;101401.66;;;15.04;41.01
76762;BME280;65705;51.032;13.790;2023-05-18T09:52:22;101406.97;;;15.12;40.88
76762;BME280;65705;51.032;13.790;2023-05-18T09:54:58;101402.84;;;15.09;40.70
76762;BME280;65705;51.032;13.790;2023-05-18T09:57:25;101401.19;;;15.08;41.44
76762;BME280;65705;51.032;13.790;2023-05-18T10:00:03;101399.31;;;15.01;40.45
76762;BME280;65705;51.032;13.790;2023-05-18T10:02:37;101399.72;;;15.14;40.57
76762;BME280;65705;51.032;13.790;2023-05-18T10:05:03;101396.47;;;15.20;40.87
76762;BME280;65705;51.032;13.790;2023-05-18T10:07:29;101401.59;;;15.21;39.60
76762;BME280;65705;51.032;13.790;2023-05-18T10:10:02;101394.94;;;15.17;39.66
76762;BME280;65705;51.032;13.790;2023-05-18T10:12:28;101406.63;;;15.32;39.67
76762;BME280;65705;51.032;13.790;2023-05-18T10:14:53;101393.00;;;15.27;39.74
76762;BME280;65705;51.032;13.790;2023-05-18T10:17:20;101390.91;;;15.31;40.93
76762;BME280;65705;51.032;13.790;2023-05-18T10:19:52;101388.88;;;15.50;40.04
76762;BME280;65705;51.032;13.790;2023-05-18T10:22:20;101386.19;;;15.42;39.51
76762;BME280;65705;51.032;13.790;2023-05-18T10:24:51;101393.38;;;15.32;39.77
76762;BME280;65705;51.032;13.790;2023-05-18T10:27:22;101390.84;;;15.48;39.83
76762;BME280;65705;51.032;13.790;2023-05-18T10:29:51;101384.22;;;15.44;40.38
76762;BME280;65705;51.032;13.790;2023-05-18T10:32:19;101382.41;;;15.53;38.86
76762;BME280;65705;51.032;13.790;2023-05-18T10:34:48;101370.53;;;15.57;39.85
76762;BME280;65705;51.032;13.790;2023-05-18T10:37:15;101367.75;;;15.66;39.32
76762;BME280;65705;51.032;13.790;2023-05-18T10:39:42;101367.78;;;15.74;39.81
76762;BME280;65705;51.032;13.790;2023-05-18T10:42:10;101366.28;;;15.72;38.40
76762;BME280;65705;51.032;13.790;2023-05-18T10:44:38;101370.06;;;15.69;38.34
76762;BME280;65705;51.032;13.790;2023-05-18T10:47:06;101368.56;;;15.59;38.47
76762;BME280;65705;51.032;13.790;2023-05-18T10:49:32;101367.25;;;15.63;38.65
76762;BME280;65705;51.032;13.790;2023-05-18T10:51:59;101362.75;;;15.63;39.16
76762;BME280;65705;51.032;13.790;2023-05-18T10:54:28;101355.16;;;15.60;39.34
76762;BME280;65705;51.032;13.790;2023-05-18T10:56:55;101350.56;;;15.78;39.20
76762;BME280;65705;51.032;13.790;2023-05-18T10:59:21;101354.72;;;15.89;38.98
76762;BME280;65705;51.032;13.790;2023-05-18T11:01:51;101354.59;;;16.07;38.63
76762;BME280;65705;51.032;13.790;2023-05-18T11:04:23;101347.16;;;16.34;38.39
76762;BME280;65705;51.032;13.790;2023-05-18T11:06:58;101344.69;;;16.57;39.05
76762;BME280;65705;51.032;13.790;2023-05-18T11:09:25;101346.00;;;16.77;37.53
76762;BME280;65705;51.032;13.790;2023-05-18T11:11:58;101350.66;;;16.67;37.02
76762;BME280;65705;51.032;13.790;2023-05-18T11:14:26;101358.13;;;16.55;37.13
76762;BME280;65705;51.032;13.790;2023-05-18T11:16:52;101350.47;;;16.28;36.40
76762;BME280;65705;51.032;13.790;2023-05-18T11:19:18;101354.13;;;16.27;36.03
76762;BME280;65705;51.032;13.790;2023-05-18T11:21:50;101352.78;;;16.31;36.78
76762;BME280;65705;51.032;13.790;2023-05-18T11:24:31;101347.19;;;16.50;37.05
76762;BME280;65705;51.032;13.790;2023-05-18T11:27:11;101342.22;;;16.55;37.17
76762;BME280;65705;51.032;13.790;2023-05-18T11:29:42;101334.91;;;16.73;37.11
76762;BME280;65705;51.032;13.790;2023-05-18T11:32:23;101334.25;;;16.79;37.12
76762;BME280;65705;51.032;13.790;2023-05-18T11:34:49;101335.88;;;16.80;37.23
76762;BME280;65705;51.032;13.790;2023-05-18T11:40:02;101331.56;;;16.88;37.67
76762;BME280;65705;51.032;13.790;2023-05-18T11:42:33;101336.03;;;16.87;36.83
76762;BME280;65705;51.032;13.790;2023-05-18T11:45:08;101337.72;;;16.72;35.99
76762;BME280;65705;51.032;13.790;2023-05-18T11:47:35;101339.06;;;16.60;36.25
76762;BME280;65705;51.032;13.790;2023-05-18T11:50:01;101335.41;;;16.69;36.67
76762;BME280;65705;51.032;13.790;2023-05-18T11:52:28;101341.03;;;16.74;36.89
76762;BME280;65705;51.032;13.790;2023-05-18T11:54:56;101329.75;;;16.88;36.82
76762;BME280;65705;51.032;13.790;2023-05-18T11:57:37;101325.53;;;17.10;37.08
76762;BME280;65705;51.032;13.790;2023-05-18T12:00:07;101325.78;;;17.23;36.48
76762;BME280;65705;51.032;13.790;2023-05-18T12:02:42;101327.13;;;17.27;36.82
76762;BME280;65705;51.032;13.790;2023-05-18T12:05:09;101327.09;;;17.35;36.88
76762;BME280;65705;51.032;13.790;2023-05-18T12:07:35;101321.50;;;17.22;36.80
76762;BME280;65705;51.032;13.790;2023-05-18T12:10:05;101316.69;;;17.25;37.04
76762;BME280;65705;51.032;13.790;2023-05-18T12:12:32;101315.75;;;17.41;36.51
76762;BME280;65705;51.032;13.790;2023-05-18T12:15:00;101323.50;;;17.20;36.74
76762;BME280;65705;51.032;13.790;2023-05-18T12:20:07;101323.88;;;17.09;37.48
76762;BME280;65705;51.032;13.790;2023-05-18T12:22:34;101314.44;;;17.06;37.12
76762;BME280;65705;51.032;13.790;2023-05-18T12:24:59;101317.75;;;17.08;37.49
76762;BME280;65705;51.032;13.790;2023-05-18T12:27:25;101315.41;;;17.13;37.51
76762;BME280;65705;51.032;13.790;2023-05-18T12:29:51;101315.72;;;17.10;37.36
76762;BME280;65705;51.032;13.790;2023-05-18T12:32:18;101310.34;;;16.96;37.10
76762;BME280;65705;51.032;13.790;2023-05-18T12:34:43;101318.78;;;16.99;37.32
76762;BME280;65705;51.032;13.790;2023-05-18T12:37:09;101307.69;;;16.96;36.92
76762;BME280;65705;51.032;13.790;2023-05-18T12:39:36;101310.06;;;17.21;37.02
76762;BME280;65705;51.032;13.790;2023-05-18T12:42:14;101310.34;;;17.34;37.65
76762;BME280;65705;51.032;13.790;2023-05-18T12:44:41;101308.84;;;17.32;36.88
76762;BME280;65705;51.032;13.790;2023-05-18T12:47:11;101307.69;;;17.26;37.21
76762;BME280;65705;51.032;13.790;2023-05-18T12:49:38;101313.94;;;17.41;37.48
76762;BME280;65705;51.032;13.790;2023-05-18T12:52:09;101302.91;;;17.60;36.96
76762;BME280;65705;51.032;13.790;2023-05-18T12:54:35;101311.25;;;17.57;36.68
76762;BME280;65705;51.032;13.790;2023-05-18T12:57:06;101315.72;;;17.57;37.04
76762;BME280;65705;51.032;13.790;2023-05-18T12:59:34;101309.25;;;17.59;37.03
76762;BME280;65705;51.032;13.790;2023-05-18T13:02:00;101305.97;;;17.41;36.73
76762;BME280;65705;51.032;13.790;2023-05-18T13:04:33;101296.59;;;17.31;36.35